createdAt,value
2023-05-14T00:01:02.965Z,99738.03
2023-05-14T00:03:29.791Z,99739.06
2023-05-14T00:05:56.594Z,99728.13
2023-05-14T00:08:23.393Z,99736.78
2023-05-14T00:10:49.993Z,99735.25
2023-05-14T00:13:16.622Z,99724.53
2023-05-14T00:15:43.536Z,99730.28
2023-05-14T00:18:12.181Z,99733.38
2023-05-14T00:20:38.904Z,99725.03
2023-05-14T00:23:05.509Z,99723.94
2023-05-14T00:25:32.222Z,99718.97
2023-05-14T00:27:58.889Z,99713.19
2023-05-14T00:30:25.772Z,99706.91
2023-05-14T00:32:53.495Z,99710.81
2023-05-14T00:35:21.392Z,99706.63
2023-05-14T00:37:48.285Z,99704.25
2023-05-14T00:40:15.490Z,99702.16
2023-05-14T00:42:42.091Z,99695.09
2023-05-14T00:45:09.146Z,99697.16
2023-05-14T00:47:36.476Z,99703.19
2023-05-14T00:50:04.621Z,99693.50
2023-05-14T00:52:32.130Z,99690.88
2023-05-14T00:54:59.298Z,99697.16
2023-05-14T00:57:26.284Z,99689.31
2023-05-14T00:59:53.063Z,99693.75
2023-05-14T01:02:19.776Z,99690.41
2023-05-14T01:04:46.892Z,99692.53
2023-05-14T01:07:38.066Z,99688.63
2023-05-14T01:10:23.534Z,99687.28
2023-05-14T01:13:20.860Z,99688.06
2023-05-14T01:15:47.845Z,99680.50
2023-05-14T01:18:18.358Z,99683.38
2023-05-14T01:20:45.870Z,99678.97
2023-05-14T01:23:12.524Z,99683.94
2023-05-14T01:25:39.119Z,99686.34
2023-05-14T01:28:34.355Z,99685.34
2023-05-14T01:31:08.042Z,99683.50
2023-05-14T01:33:36.663Z,99680.63
2023-05-14T01:36:03.916Z,99684.56
2023-05-14T01:38:33.913Z,99680.41
2023-05-14T01:41:01.188Z,99677.50
2023-05-14T01:43:29.142Z,99678.81
2023-05-14T01:45:56.034Z,99678.00
2023-05-14T01:48:22.712Z,99663.59
2023-05-14T01:50:49.352Z,99667.50
2023-05-14T01:53:15.953Z,99671.94
2023-05-14T01:55:42.580Z,99673.72
2023-05-14T01:58:09.579Z,99679.25
2023-05-14T02:00:36.284Z,99682.16
2023-05-14T02:03:02.956Z,99679.84
2023-05-14T02:05:29.618Z,99666.50
2023-05-14T02:07:56.271Z,99670.97
2023-05-14T02:10:23.133Z,99673.53
2023-05-14T02:12:49.991Z,99671.97
2023-05-14T02:15:16.738Z,99680.88
2023-05-14T02:17:43.635Z,99667.81
2023-05-14T02:20:11.340Z,99665.47
2023-05-14T02:22:38.130Z,99668.63
2023-05-14T02:25:05.475Z,99676.00
2023-05-14T02:27:32.199Z,99663.19
2023-05-14T02:30:00.862Z,99667.88
2023-05-14T02:32:28.395Z,99673.91
2023-05-14T02:34:55.295Z,99676.00
2023-05-14T02:37:22.004Z,99668.69
2023-05-14T02:39:49.346Z,99668.41
2023-05-14T02:42:16.008Z,99672.84
2023-05-14T02:44:42.621Z,99673.13
2023-05-14T02:47:09.369Z,99668.69
2023-05-14T02:49:36.096Z,99668.69
2023-05-14T02:52:03.553Z,99671.56
2023-05-14T02:54:30.307Z,99668.72
2023-05-14T02:56:57.102Z,99662.22
2023-05-14T02:59:24.874Z,99663.03
2023-05-14T03:01:52.055Z,99657.81
2023-05-14T03:04:19.095Z,99663.34
2023-05-14T03:06:45.737Z,99660.47
2023-05-14T03:09:12.454Z,99662.31
2023-05-14T03:11:39.127Z,99662.06
2023-05-14T03:14:05.754Z,99670.69
2023-05-14T03:16:32.589Z,99665.72
2023-05-14T03:18:59.393Z,99663.09
2023-05-14T03:21:26.301Z,99658.94
2023-05-14T03:23:53.618Z,99664.94
2023-05-14T03:26:21.587Z,99656.31
2023-05-14T03:28:48.598Z,99663.13
2023-05-14T03:31:15.411Z,99659.97
2023-05-14T03:33:42.229Z,99659.47
2023-05-14T03:36:09.393Z,99657.91
2023-05-14T03:38:36.003Z,99656.84
2023-05-14T03:41:02.673Z,99648.25
2023-05-14T03:43:29.397Z,99650.06
2023-05-14T03:45:56.139Z,99641.44
2023-05-14T03:48:22.971Z,99645.88
2023-05-14T03:50:49.744Z,99640.66
2023-05-14T03:53:16.793Z,99635.97
2023-05-14T03:55:45.389Z,99637.28
2023-05-14T03:58:14.241Z,99638.84
2023-05-14T04:00:42.333Z,99638.59
2023-05-14T04:03:10.428Z,99637.28
2023-05-14T04:05:37.073Z,99641.72
2023-05-14T04:08:03.872Z,99628.16
2023-05-14T04:10:32.080Z,99627.88
2023-05-14T04:12:59.633Z,99626.31
2023-05-14T04:15:31.052Z,99630.25
2023-05-14T04:17:57.816Z,99621.88
2023-05-14T04:20:24.693Z,99626.84
2023-05-14T04:22:51.491Z,99626.84
2023-05-14T04:25:18.550Z,99631.53
2023-05-14T04:27:45.346Z,99625.81
2023-05-14T04:30:12.481Z,99628.16
2023-05-14T04:32:39.387Z,99626.03
2023-05-14T04:35:06.753Z,99621.34
2023-05-14T04:37:33.361Z,99621.34
2023-05-14T04:40:00.362Z,99621.63
2023-05-14T04:42:27.110Z,99618.22
2023-05-14T04:44:53.850Z,99616.34
2023-05-14T04:47:21.124Z,99611.66
2023-05-14T04:49:47.948Z,99620.78
2023-05-14T04:52:14.821Z,99617.66
2023-05-14T04:54:41.525Z,99622.31
2023-05-14T04:57:08.116Z,99619.16
2023-05-14T04:59:34.771Z,99620.94
2023-05-14T05:02:01.408Z,99615.41
2023-05-14T05:04:28.057Z,99622.19
2023-05-14T05:06:54.681Z,99620.56
2023-05-14T05:09:21.272Z,99619.22
2023-05-14T05:11:47.965Z,99613.19
2023-05-14T05:14:14.606Z,99612.88
2023-05-14T05:16:41.303Z,99619.91
2023-05-14T05:19:07.998Z,99608.09
2023-05-14T05:21:35.251Z,99607.25
2023-05-14T05:24:01.920Z,99607.94
2023-05-14T05:26:28.658Z,99607.59
2023-05-14T05:28:55.318Z,99603.34
2023-05-14T05:31:21.981Z,99604.81
2023-05-14T05:33:48.631Z,99607.34
2023-05-14T05:36:15.338Z,99603.56
2023-05-14T05:38:42.167Z,99603.19
2023-05-14T05:41:08.758Z,99604.34
2023-05-14T05:43:35.460Z,99605.22
2023-05-14T05:46:02.380Z,99599.31
2023-05-14T05:48:29.033Z,99601.59
2023-05-14T05:50:55.837Z,99600.19
2023-05-14T05:53:22.546Z,99597.72
2023-05-14T05:55:51.439Z,99588.44
2023-05-14T05:58:19.029Z,99596.44
2023-05-14T06:00:47.084Z,99590.28
2023-05-14T06:03:14.036Z,99594.31
2023-05-14T06:05:40.952Z,99591.28
2023-05-14T06:08:07.649Z,99592.97
2023-05-14T06:10:36.202Z,99597.00
2023-05-14T06:13:03.134Z,99599.16
2023-05-14T06:15:29.783Z,99593.34
2023-05-14T06:17:56.401Z,99591.25
2023-05-14T06:20:23.267Z,99596.06
2023-05-14T06:22:50.196Z,99587.69
2023-05-14T06:25:16.856Z,99580.78
2023-05-14T06:27:44.041Z,99590.44
2023-05-14T06:30:11.312Z,99587.34
2023-05-14T06:32:37.976Z,99577.81
2023-05-14T06:35:05.188Z,99583.75
2023-05-14T06:37:31.826Z,99585.00
2023-05-14T06:39:58.652Z,99581.66
2023-05-14T06:42:26.567Z,99581.28
2023-05-14T06:44:53.355Z,99581.66
2023-05-14T06:47:19.899Z,99587.09
2023-05-14T06:49:46.540Z,99584.25
2023-05-14T06:52:13.165Z,99573.50
2023-05-14T06:54:39.828Z,99578.53
2023-05-14T06:57:06.444Z,99580.97
2023-05-14T06:59:33.295Z,99569.72
2023-05-14T07:02:00.079Z,99574.47
2023-05-14T07:04:27.291Z,99571.59
2023-05-14T07:06:54.201Z,99570.44
2023-05-14T07:09:20.821Z,99567.88
2023-05-14T07:11:48.239Z,99572.56
2023-05-14T07:14:14.896Z,99558.47
2023-05-14T07:16:42.727Z,99564.34
2023-05-14T07:19:09.415Z,99558.59
2023-05-14T07:21:36.244Z,99554.88
2023-05-14T07:24:03.230Z,99551.34
2023-05-14T07:26:30.506Z,99550.91
2023-05-14T07:28:57.314Z,99549.34
2023-05-14T07:31:24.254Z,99546.56
2023-05-14T07:33:50.919Z,99554.84
2023-05-14T07:36:17.769Z,99552.97
2023-05-14T07:38:44.565Z,99542.28
2023-05-14T07:41:12.741Z,99542.31
2023-05-14T07:43:40.594Z,99542.41
2023-05-14T07:46:07.285Z,99535.44
2023-05-14T07:48:34.172Z,99545.84
2023-05-14T07:51:00.861Z,99533.13
2023-05-14T07:53:27.438Z,99543.03
2023-05-14T07:55:54.580Z,99534.53
2023-05-14T07:58:21.227Z,99540.09
2023-05-14T08:00:48.170Z,99535.31
2023-05-14T08:03:15.090Z,99541.50
2023-05-14T08:05:41.875Z,99532.97
2023-05-14T08:08:08.493Z,99534.69
2023-05-14T08:10:35.322Z,99532.94
2023-05-14T08:13:02.019Z,99531.84
2023-05-14T08:15:28.755Z,99540.88
2023-05-14T08:17:55.785Z,99534.50
2023-05-14T08:20:23.098Z,99536.03
2023-05-14T08:22:49.879Z,99530.13
2023-05-14T08:25:16.640Z,99523.00
2023-05-14T08:27:43.301Z,99527.31
2023-05-14T08:30:10.288Z,99522.13
2023-05-14T08:32:38.671Z,99523.22
2023-05-14T08:35:05.790Z,99517.84
2023-05-14T08:37:32.512Z,99517.84
2023-05-14T08:39:59.305Z,99516.19
2023-05-14T08:42:26.990Z,99517.47
2023-05-14T08:45:03.545Z,99520.94
2023-05-14T08:47:30.863Z,99522.22
2023-05-14T08:50:06.322Z,99525.41
2023-05-14T08:52:34.660Z,99514.69
2023-05-14T08:55:04.197Z,99515.28
2023-05-14T08:57:32.670Z,99514.03
2023-05-14T08:59:59.581Z,99506.44
2023-05-14T09:02:31.482Z,99506.44
2023-05-14T09:05:00.442Z,99508.03
2023-05-14T09:07:28.085Z,99503.78
2023-05-14T09:09:55.782Z,99513.59
2023-05-14T09:12:22.832Z,99511.09
2023-05-14T09:14:50.589Z,99503.47
2023-05-14T09:17:18.871Z,99507.00
2023-05-14T09:19:53.057Z,99506.88
2023-05-14T09:22:21.172Z,99505.00
2023-05-14T09:25:05.696Z,99504.63
2023-05-14T09:27:33.293Z,99492.81
2023-05-14T09:30:13.532Z,99502.84
2023-05-14T09:32:44.321Z,99499.75
2023-05-14T09:35:11.932Z,99497.41
2023-05-14T09:37:42.184Z,99496.34
2023-05-14T09:40:09.544Z,99504.28
2023-05-14T09:42:36.162Z,99486.66
2023-05-14T09:45:04.726Z,99486.72
2023-05-14T09:47:32.714Z,99477.00
2023-05-14T09:49:59.554Z,99477.06
2023-05-14T09:52:26.430Z,99475.66
2023-05-14T09:54:53.474Z,99473.69
2023-05-14T09:57:20.837Z,99469.50
2023-05-14T09:59:47.633Z,99471.56
2023-05-14T10:02:26.436Z,99459.19
2023-05-14T10:04:54.801Z,99459.28
2023-05-14T10:07:29.475Z,99451.44
2023-05-14T10:10:01.807Z,99446.03
2023-05-14T10:12:38.699Z,99441.47
2023-05-14T10:15:12.867Z,99447.84
2023-05-14T10:17:41.168Z,99442.91
2023-05-14T10:20:10.938Z,99441.94
2023-05-14T10:22:37.664Z,99438.06
2023-05-14T10:25:05.169Z,99434.19
2023-05-14T10:27:32.275Z,99434.03
2023-05-14T10:29:59.068Z,99431.31
2023-05-14T10:32:27.581Z,99429.13
2023-05-14T10:34:54.298Z,99428.38
2023-05-14T10:37:22.633Z,99419.41
2023-05-14T10:39:59.526Z,99420.22
2023-05-14T10:42:28.825Z,99416.13
2023-05-14T10:44:58.799Z,99427.03
2023-05-14T10:47:29.450Z,99417.84
2023-05-14T10:49:56.812Z,99411.16
2023-05-14T10:52:24.123Z,99419.09
2023-05-14T10:55:03.680Z,99410.72
2023-05-14T10:57:31.957Z,99407.13
2023-05-14T11:00:01.166Z,99409.03
2023-05-14T11:02:28.775Z,99404.22
2023-05-14T11:05:08.544Z,99396.78
2023-05-14T11:07:37.908Z,99398.13
2023-05-14T11:10:09.895Z,99405.03
2023-05-14T11:12:40.874Z,99396.09
2023-05-14T11:15:09.912Z,99384.00
2023-05-14T11:17:37.989Z,99393.16
2023-05-14T11:20:06.767Z,99397.34
2023-05-14T11:22:34.583Z,99375.94
2023-05-14T11:25:01.385Z,99381.88
2023-05-14T11:27:28.406Z,99374.84
2023-05-14T11:29:55.960Z,99378.06
2023-05-14T11:32:22.785Z,99377.66
2023-05-14T11:34:49.769Z,99377.34
2023-05-14T11:37:16.827Z,99372.44
2023-05-14T11:39:54.791Z,99373.28
2023-05-14T11:42:22.661Z,99368.78
2023-05-14T11:44:51.659Z,99368.69
2023-05-14T11:47:21.071Z,99371.19
2023-05-14T11:49:48.673Z,99371.31
2023-05-14T11:52:19.226Z,99362.53
2023-05-14T11:54:46.780Z,99370.06
2023-05-14T11:57:16.718Z,99362.53
2023-05-14T11:59:44.758Z,99359.22
2023-05-14T12:02:17.387Z,99353.28
2023-05-14T12:04:49.358Z,99356.00
2023-05-14T12:07:16.450Z,99348.63
2023-05-14T12:09:51.558Z,99343.44
2023-05-14T12:12:22.581Z,99340.09
2023-05-14T12:14:50.259Z,99340.63
2023-05-14T12:17:22.195Z,99335.97
2023-05-14T12:19:51.434Z,99337.97
2023-05-14T12:22:21.884Z,99339.91
2023-05-14T12:24:56.632Z,99337.25
2023-05-14T12:27:28.607Z,99334.63
2023-05-14T12:30:19.873Z,99324.06
2023-05-14T12:32:52.870Z,99328.03
2023-05-14T12:35:21.862Z,99319.00
2023-05-14T12:37:48.560Z,99312.38
2023-05-14T12:40:15.322Z,99313.09
2023-05-14T12:42:42.167Z,99316.47
2023-05-14T12:45:09.079Z,99318.19
2023-05-14T12:47:36.911Z,99313.91
2023-05-14T12:50:04.716Z,99303.97
2023-05-14T12:55:01.453Z,99292.03
2023-05-14T12:57:29.844Z,99301.09
2023-05-14T12:59:57.154Z,99299.97
2023-05-14T13:02:24.580Z,99294.72
2023-05-14T13:04:51.257Z,99278.00
2023-05-14T13:07:17.891Z,99283.63
2023-05-14T13:09:44.532Z,99280.50
2023-05-14T13:12:11.130Z,99289.34
2023-05-14T13:14:37.818Z,99288.84
2023-05-14T13:17:05.126Z,99283.50
2023-05-14T13:19:31.910Z,99281.84
2023-05-14T13:21:58.515Z,99287.09
2023-05-14T13:24:25.184Z,99288.97
2023-05-14T13:26:51.790Z,99287.19
2023-05-14T13:29:18.439Z,99276.88
2023-05-14T13:31:45.022Z,99285.03
2023-05-14T13:34:13.070Z,99282.47
2023-05-14T13:36:42.172Z,99287.88
2023-05-14T13:39:09.842Z,99274.19
2023-05-14T13:41:37.805Z,99277.75
2023-05-14T13:44:04.919Z,99278.44
2023-05-14T13:46:31.584Z,99271.16
2023-05-14T13:48:58.347Z,99273.38
2023-05-14T13:51:25.160Z,99276.19
2023-05-14T13:53:51.798Z,99274.50
2023-05-14T13:56:18.689Z,99270.00
2023-05-14T13:58:46.282Z,99266.59
2023-05-14T14:01:13.035Z,99265.47
2023-05-14T14:03:39.697Z,99264.97
2023-05-14T14:06:06.388Z,99255.50
2023-05-14T14:08:39.607Z,99261.38
2023-05-14T14:11:06.274Z,99260.06
2023-05-14T14:13:32.876Z,99254.31
2023-05-14T14:15:59.522Z,99259.72
2023-05-14T14:18:32.570Z,99254.53
2023-05-14T14:20:59.197Z,99246.25
2023-05-14T14:23:25.985Z,99242.03
2023-05-14T14:25:52.630Z,99234.69
2023-05-14T14:28:19.481Z,99239.22
2023-05-14T14:30:46.278Z,99235.03
2023-05-14T14:33:12.910Z,99230.53
2023-05-14T14:35:40.037Z,99237.34
2023-05-14T14:38:06.614Z,99230.56
2023-05-14T14:40:34.398Z,99224.78
2023-05-14T14:43:02.065Z,99227.19
2023-05-14T14:45:29.196Z,99216.84
2023-05-14T14:48:37.435Z,99223.03
2023-05-14T14:51:06.097Z,99218.44
2023-05-14T14:53:33.424Z,99223.94
2023-05-14T14:56:01.017Z,99219.66
2023-05-14T14:58:28.397Z,99222.06
2023-05-14T15:00:56.347Z,99220.97
2023-05-14T15:03:24.121Z,99214.78
2023-05-14T15:05:52.191Z,99211.47
2023-05-14T15:08:19.233Z,99211.91
2023-05-14T15:10:46.357Z,99211.59
2023-05-14T15:13:13.303Z,99212.47
2023-05-14T15:15:39.879Z,99216.78
2023-05-14T15:18:06.573Z,99219.88
2023-05-14T15:20:33.449Z,99218.78
2023-05-14T15:23:00.095Z,99217.34
2023-05-14T15:25:27.184Z,99217.34
2023-05-14T15:27:53.919Z,99211.59
2023-05-14T15:30:20.900Z,99209.50
2023-05-14T15:32:47.667Z,99212.38
2023-05-14T15:35:14.503Z,99212.38
2023-05-14T15:37:43.457Z,99199.78
2023-05-14T15:40:11.379Z,99199.78
2023-05-14T15:42:39.216Z,99196.09
2023-05-14T15:45:06.118Z,99196.63
2023-05-14T15:47:32.811Z,99193.03
2023-05-14T15:49:59.927Z,99209.81
2023-05-14T15:52:26.933Z,99195.50
2023-05-14T15:54:54.294Z,99194.84
2023-05-14T15:57:20.932Z,99194.94
2023-05-14T15:59:47.560Z,99193.50
2023-05-14T16:02:15.355Z,99193.41
2023-05-14T16:04:41.997Z,99192.41
2023-05-14T16:07:12.409Z,99190.66
2023-05-14T16:09:39.433Z,99191.09
2023-05-14T16:12:07.356Z,99193.06
2023-05-14T16:14:35.569Z,99185.91
2023-05-14T16:17:02.603Z,99192.31
2023-05-14T16:19:29.314Z,99187.66
2023-05-14T16:21:55.900Z,99192.53
2023-05-14T16:24:22.491Z,99199.69
2023-05-14T16:26:49.430Z,99192.41
2023-05-14T16:29:16.920Z,99194.84
2023-05-14T16:31:43.789Z,99195.34
2023-05-14T16:34:10.617Z,99194.75
2023-05-14T16:36:37.418Z,99189.34
2023-05-14T16:39:08.149Z,99198.78
2023-05-14T16:41:38.409Z,99204.38
2023-05-14T16:44:05.102Z,99200.84
2023-05-14T16:46:32.399Z,99197.47
2023-05-14T16:48:59.316Z,99199.22
2023-05-14T16:51:25.948Z,99200.91
2023-05-14T16:53:53.984Z,99200.53
2023-05-14T16:56:22.465Z,99185.25
2023-05-14T16:58:49.259Z,99195.25
2023-05-14T17:01:15.925Z,99190.59
2023-05-14T17:03:43.575Z,99192.03
2023-05-14T17:06:10.411Z,99186.59
2023-05-14T17:08:37.052Z,99185.53
2023-05-14T17:11:05.880Z,99182.88
2023-05-14T17:13:33.083Z,99180.25
2023-05-14T17:16:00.587Z,99180.38
2023-05-14T17:18:27.324Z,99180.81
2023-05-14T17:20:53.961Z,99174.31
2023-05-14T17:23:20.688Z,99177.47
2023-05-14T17:25:47.332Z,99175.91
2023-05-14T17:28:14.078Z,99179.06
2023-05-14T17:30:41.115Z,99178.31
2023-05-14T17:33:08.065Z,99182.94
2023-05-14T17:35:36.262Z,99187.75
2023-05-14T17:38:03.562Z,99186.09
2023-05-14T17:40:30.286Z,99181.00
2023-05-14T17:42:56.890Z,99181.38
2023-05-14T17:45:23.952Z,99192.94
2023-05-14T17:47:51.525Z,99187.53
2023-05-14T17:50:18.811Z,99183.81
2023-05-14T17:52:46.179Z,99183.38
2023-05-14T17:55:13.176Z,99188.66
2023-05-14T17:57:39.943Z,99182.28
2023-05-14T18:00:07.667Z,99179.81
2023-05-14T18:02:38.417Z,99181.88
2023-05-14T18:05:06.012Z,99181.91
2023-05-14T18:07:32.793Z,99178.81
2023-05-14T18:09:59.445Z,99179.00
2023-05-14T18:12:26.744Z,99176.66
2023-05-14T18:14:53.750Z,99179.59
2023-05-14T18:17:20.463Z,99180.06
2023-05-14T18:19:48.280Z,99178.25
2023-05-14T18:22:15.537Z,99176.88
2023-05-14T18:24:44.125Z,99168.97
2023-05-14T18:27:11.109Z,99174.72
2023-05-14T18:29:37.862Z,99180.47
2023-05-14T18:32:05.081Z,99184.34
2023-05-14T18:34:32.288Z,99188.38
2023-05-14T18:36:58.949Z,99193.34
2023-05-14T18:39:26.414Z,99189.00
2023-05-14T18:41:53.211Z,99183.28
2023-05-14T18:44:20.162Z,99187.47
2023-05-14T18:46:46.902Z,99185.47
2023-05-14T18:49:13.563Z,99187.63
2023-05-14T18:51:40.295Z,99190.13
2023-05-14T18:54:06.914Z,99200.63
2023-05-14T18:56:34.777Z,99198.94
2023-05-14T18:59:02.065Z,99204.63
2023-05-14T19:01:28.724Z,99201.53
2023-05-14T19:03:56.152Z,99200.88
2023-05-14T19:06:22.963Z,99204.88
2023-05-14T19:08:50.411Z,99202.06
2023-05-14T19:11:18.160Z,99203.56
2023-05-14T19:13:46.725Z,99218.88
2023-05-14T19:16:13.551Z,99229.19
2023-05-14T19:18:40.465Z,99225.94
2023-05-14T19:21:07.072Z,99222.06
2023-05-14T19:23:33.745Z,99220.47
2023-05-14T19:26:01.144Z,99215.47
2023-05-14T19:28:28.088Z,99213.44
2023-05-14T19:30:54.776Z,99211.25
2023-05-14T19:33:21.469Z,99211.66
2023-05-14T19:35:48.147Z,99214.09
2023-05-14T19:38:15.057Z,99217.94
2023-05-14T19:40:42.987Z,99212.81
2023-05-14T19:43:11.780Z,99215.56
2023-05-14T19:45:39.288Z,99219.06
2023-05-14T19:48:06.660Z,99218.69
2023-05-14T19:50:34.306Z,99194.09
2023-05-14T19:53:01.184Z,99200.72
2023-05-14T19:55:27.990Z,99207.06
2023-05-14T19:57:54.633Z,99197.31
2023-05-14T20:00:22.834Z,99201.91
2023-05-14T20:02:49.610Z,99198.63
2023-05-14T20:05:16.483Z,99197.03
2023-05-14T20:07:43.806Z,99196.72
2023-05-14T20:10:10.935Z,99192.56
2023-05-14T20:12:37.575Z,99193.44
2023-05-14T20:15:05.412Z,99185.97
2023-05-14T20:17:32.117Z,99186.38
2023-05-14T20:19:58.928Z,99189.78
2023-05-14T20:22:25.665Z,99185.50
2023-05-14T20:24:52.712Z,99176.97
2023-05-14T20:27:19.493Z,99182.13
2023-05-14T20:29:46.913Z,99174.88
2023-05-14T20:32:13.785Z,99180.69
2023-05-14T20:34:40.379Z,99174.69
2023-05-14T20:37:08.027Z,99175.75
2023-05-14T20:39:34.795Z,99170.31
2023-05-14T20:42:01.549Z,99160.97
2023-05-14T20:44:28.120Z,99160.50
2023-05-14T20:46:55.018Z,99160.19
2023-05-14T20:49:21.606Z,99156.31
2023-05-14T20:51:48.210Z,99158.28
2023-05-14T20:54:14.827Z,99149.81
2023-05-14T20:56:41.473Z,99146.72
2023-05-14T20:59:08.228Z,99142.44
2023-05-14T21:01:35.015Z,99143.00
2023-05-14T21:04:01.682Z,99138.78
2023-05-14T21:06:28.434Z,99148.47
2023-05-14T21:08:55.978Z,99142.75
2023-05-14T21:11:23.085Z,99138.41
2023-05-14T21:13:49.834Z,99136.84
2023-05-14T21:16:16.582Z,99134.81
2023-05-14T21:18:44.012Z,99137.44
2023-05-14T21:21:10.714Z,99133.53
2023-05-14T21:23:37.292Z,99129.84
2023-05-14T21:26:04.025Z,99128.50
2023-05-14T21:28:31.387Z,99132.00
2023-05-14T21:30:58.098Z,99121.31
2023-05-14T21:33:24.805Z,99124.25
2023-05-14T21:35:51.642Z,99120.84
2023-05-14T21:38:18.355Z,99129.19
2023-05-14T21:40:45.081Z,99123.94
2023-05-14T21:43:11.707Z,99124.25
2023-05-14T21:45:38.981Z,99113.56
2023-05-14T21:48:05.890Z,99104.16
2023-05-14T21:50:32.547Z,99109.38
2023-05-14T21:52:59.096Z,99101.91
2023-05-14T21:55:27.659Z,99105.72
2023-05-14T21:57:54.669Z,99095.53
2023-05-14T22:00:24.287Z,99103.50
2023-05-14T22:02:52.943Z,99095.94
2023-05-14T22:05:20.581Z,99085.03
2023-05-14T22:07:47.496Z,99087.47
2023-05-14T22:10:15.219Z,99081.53
2023-05-14T22:12:43.781Z,99083.38
2023-05-14T22:15:11.239Z,99075.44
2023-05-14T22:17:38.473Z,99077.75
2023-05-14T22:20:06.827Z,99080.31
2023-05-14T22:22:34.335Z,99077.94
2023-05-14T22:25:01.321Z,99078.47
2023-05-14T22:27:28.056Z,99073.69
2023-05-14T22:29:55.230Z,99081.66
2023-05-14T22:32:21.971Z,99073.97
2023-05-14T22:34:48.658Z,99067.19
2023-05-14T22:37:15.675Z,99069.69
2023-05-14T22:39:42.857Z,99065.22
2023-05-14T22:42:09.614Z,99063.38
2023-05-14T22:44:37.043Z,99057.66
2023-05-14T22:47:07.256Z,99060.88
2023-05-14T22:49:33.959Z,99055.63
2023-05-14T22:52:01.295Z,99060.97
2023-05-14T22:54:27.909Z,99051.16
2023-05-14T22:56:54.584Z,99060.56
2023-05-14T22:59:23.441Z,99053.19
2023-05-14T23:01:50.532Z,99051.63
2023-05-14T23:04:17.253Z,99039.91
2023-05-14T23:06:44.405Z,99036.31
2023-05-14T23:09:11.009Z,99032.34
2023-05-14T23:11:37.726Z,99031.84
2023-05-14T23:14:04.311Z,99029.63
2023-05-14T23:16:31.832Z,99024.00
2023-05-14T23:18:58.738Z,99019.72
2023-05-14T23:21:25.666Z,99017.50
2023-05-14T23:23:52.365Z,99004.53
2023-05-14T23:26:19.063Z,99009.09
2023-05-14T23:28:47.224Z,98995.28
2023-05-14T23:31:13.976Z,99001.13
2023-05-14T23:33:40.697Z,98998.19
2023-05-14T23:36:07.969Z,98997.63
2023-05-14T23:38:34.817Z,98993.53
2023-05-14T23:41:01.782Z,98994.81
2023-05-14T23:43:28.458Z,98988.41
2023-05-14T23:45:55.144Z,98984.72
2023-05-14T23:48:22.274Z,98986.97
2023-05-14T23:50:49.051Z,98980.28
2023-05-14T23:53:15.708Z,98978.72
2023-05-14T23:55:42.421Z,98975.63
2023-05-14T23:58:09.195Z,98969.41
